Terminal Aerodrome Forecast
Issued by NWS Detroit/Pontiac, MI

Home | Current Version | Previous Version | Text Only | Print | Product List | Glossary On
Versions: 1 2 3 4 5 6 7 8 9 10 11 12 13 14 15 16 17 18 19 20 21 22 23 24 25 26 27 28
000
FTUS43 KDTX 291120
TAFDTW
TAF
KDTW 291120Z 2912/3018 23008KT P6SM FEW070
     FM291600 22015G24KT P6SM BKN060 PROB30 2921/2924 5SM -SHRA
      SCT030 OVC060
     FM300000 24010KT P6SM SCT070
     FM300600 26006KT P6SM SCT080=

USA.gov is the U.S. government's official web portal to all federal, state and local government web resources and services.